Time;durP1;ratioP1;P1;durP2;ratioP2;P2;SDS_P1;SDS_P2;PMS_P1;PMS_P2;Temp;Humidity;BMP_temperature;BMP_pressure;BME280_temperature;BME280_humidity;BME280_pressure;Samples;Min_cycle;Max_cycle;Signal;HPM_P1;HPM_P2
2024/02/27 00:00:51;;;;;;;5.37;4.83;;;;;;;;;;5928272;24;20385;-88
2024/02/27 00:03:42;;;;;;;8.40;5.20;;;;;;;;;;5864481;24;20931;-88
2024/02/27 00:09:43;;;;;;;;;;;;;;;;;;;;;
2024/02/27 00:12:36;;;;;;;5.80;5.30;;;;;;;;;;5927606;24;20410;-89
2024/02/27 00:15:31;;;;;;;5.50;5.00;;;;;;;;;;5909334;24;21294;-89
2024/02/27 00:18:24;;;;;;;6.93;5.27;;;;;;;;;;5923039;23;20436;-89
2024/02/27 00:21:00;;;;;;;7.37;5.63;;;;;;;;;;6004459;23;20439;-88
2024/02/27 00:23:42;;;;;;;6.43;5.30;;;;;;;;;;6044183;23;20456;-88
2024/02/27 00:26:33;;;;;;;6.07;5.47;;;;;;;;;;6030098;23;20513;-90
2024/02/27 00:29:23;;;;;;;7.60;6.57;;;;;;;;;;6136930;23;20453;-89
2024/02/27 00:32:28;;;;;;;7.30;6.00;;;;;;;;;;6189824;23;20441;-88
2024/02/27 00:35:15;;;;;;;6.30;5.70;;;;;;;;;;6168999;23;20457;-90
2024/02/27 00:37:53;;;;;;;6.53;5.70;;;;;;;;;;6159905;23;20538;-89
2024/02/27 00:40:35;;;;;;;6.97;6.27;;;;;;;;;;6157469;23;20434;-87
2024/02/27 00:43:06;;;;;;;8.47;6.50;;;;;;;;;;6157459;23;20442;-87
2024/02/27 00:48:56;;;;;;;7.07;5.53;;;;;;;;;;6151904;23;20488;-87
2024/02/27 00:51:40;;;;;;;6.43;5.83;;;;;;;;;;6158216;23;20434;-89
2024/02/27 00:54:48;;;;;;;7.47;6.73;;;;;;;;;;6155203;23;20952;-86
2024/02/27 00:57:29;;;;;;;7.53;6.73;;;;;;;;;;6158778;23;20465;-86
2024/02/27 01:03:50;;;;;;;6.43;5.83;;;;;;;;;;6090363;23;20747;-89
2024/02/27 01:06:34;;;;;;;9.60;6.53;;;;;;;;;;6158290;23;20505;-87
2024/02/27 01:09:35;;;;;;;8.23;6.73;;;;;;;;;;6170581;23;20434;-90
2024/02/27 01:15:11;;;;;;;6.43;5.87;;;;;;;;;;6151945;23;20426;-89
2024/02/27 01:18:13;;;;;;;7.33;6.70;;;;;;;;;;6179558;23;20399;-89
2024/02/27 01:21:00;;;;;;;7.20;6.30;;;;;;;;;;6177037;23;20403;-90
2024/02/27 01:23:39;;;;;;;7.80;7.10;;;;;;;;;;6159129;23;20456;-89
2024/02/27 01:26:54;;;;;;;8.90;7.40;;;;;;;;;;6215761;23;20440;-88
2024/02/27 01:29:42;;;;;;;8.23;6.90;;;;;;;;;;6196543;23;20509;-87
2024/02/27 01:35:07;;;;;;;7.97;7.23;;;;;;;;;;6209471;23;20428;-90
2024/02/27 01:37:56;;;;;;;8.50;7.70;;;;;;;;;;6169588;23;20420;-88
2024/02/27 01:40:37;;;;;;;8.87;7.97;;;;;;;;;;6166771;23;20515;-88
2024/02/27 01:43:22;;;;;;;10.77;8.73;;;;;;;;;;6165542;23;20457;-87
2024/02/27 01:46:15;;;;;;;9.83;8.00;;;;;;;;;;6152936;23;20417;-88
2024/02/27 01:49:35;;;;;;;9.20;7.73;;;;;;;;;;6162557;23;20402;-88
2024/02/27 01:52:26;;;;;;;9.10;8.10;;;;;;;;;;6167830;23;20441;-86
2024/02/27 01:55:03;;;;;;;8.77;7.73;;;;;;;;;;6167064;23;20428;-87
2024/02/27 01:57:47;;;;;;;9.10;7.33;;;;;;;;;;6162849;23;20401;-87
2024/02/27 02:00:31;;;;;;;9.50;8.40;;;;;;;;;;6167783;23;20416;-89
2024/02/27 02:03:17;;;;;;;;;;;;;;;;;;;;;
2024/02/27 02:05:58;;;;;;;9.53;8.63;;;;;;;;;;6190037;23;20433;-89
2024/02/27 02:08:29;;;;;;;9.63;8.63;;;;;;;;;;6167481;23;20458;-88
2024/02/27 02:11:15;;;;;;;10.50;8.30;;;;;;;;;;6168840;23;20864;-88
2024/02/27 02:13:56;;;;;;;10.50;8.50;;;;;;;;;;6165930;23;20476;-91
2024/02/27 02:16:39;;;;;;;10.87;9.30;;;;;;;;;;6168605;23;20481;-89
2024/02/27 02:19:13;;;;;;;10.20;9.20;;;;;;;;;;6164812;23;20492;-88
2024/02/27 02:21:46;;;;;;;8.57;7.73;;;;;;;;;;6164020;23;20425;-89
2024/02/27 02:24:35;;;;;;;9.10;8.00;;;;;;;;;;6154005;23;20422;-88
2024/02/27 02:31:13;;;;;;;8.60;7.70;;;;;;;;;;6068095;23;20382;-87
2024/02/27 02:37:05;;;;;;;9.30;8.40;;;;;;;;;;6168054;23;20450;-90
2024/02/27 02:40:04;;;;;;;;;;;;;;;;;;;;;
2024/02/27 02:43:33;;;;;;;10.33;9.07;;;;;;;;;;6104120;23;20858;-88
2024/02/27 02:53:51;;;;;;;8.70;7.87;;;;;;;;;;6111278;23;20412;-89
2024/02/27 03:06:09;;;;;;;8.23;7.40;;;;;;;;;;6199273;23;20637;-89
2024/02/27 03:15:45;;;;;;;12.80;9.27;;;;;;;;;;6191107;23;20461;-90
2024/02/27 03:22:46;;;;;;;14.50;10.70;;;;;;;;;;6066780;23;20454;-88
2024/02/27 03:33:08;;;;;;;13.73;11.00;;;;;;;;;;6143409;23;20418;-89
2024/02/27 03:35:59;;;;;;;14.47;11.47;;;;;;;;;;6132469;23;20419;-89
2024/02/27 03:38:45;;;;;;;13.63;10.80;;;;;;;;;;6135567;23;20417;-87
2024/02/27 03:41:25;;;;;;;13.83;11.77;;;;;;;;;;6139714;23;20445;-90
2024/02/27 03:44:15;;;;;;;13.90;11.90;;;;;;;;;;6139324;23;20465;-88
2024/02/27 03:47:01;;;;;;;14.70;11.77;;;;;;;;;;6163756;23;20447;-88
2024/02/27 03:49:50;;;;;;;14.17;12.20;;;;;;;;;;6163287;23;20441;-89
2024/02/27 03:52:21;;;;;;;13.77;12.07;;;;;;;;;;6161704;23;20410;-89
2024/02/27 03:55:04;;;;;;;14.50;11.10;;;;;;;;;;6173782;23;20457;-88
2024/02/27 03:57:52;;;;;;;13.47;11.40;;;;;;;;;;6176381;23;20412;-88
2024/02/27 04:00:58;;;;;;;14.20;11.60;;;;;;;;;;6177543;23;20426;-90
2024/02/27 04:06:31;;;;;;;16.23;12.30;;;;;;;;;;6180942;23;20934;-87
2024/02/27 04:12:18;;;;;;;12.87;10.13;;;;;;;;;;6198341;23;20402;-90
2024/02/27 04:14:57;;;;;;;13.63;11.70;;;;;;;;;;6204742;23;20406;-89
2024/02/27 04:17:55;;;;;;;14.97;12.37;;;;;;;;;;6198878;23;20410;-87
2024/02/27 04:20:52;;;;;;;16.47;12.00;;;;;;;;;;6153798;23;20488;-89
2024/02/27 04:23:32;;;;;;;13.93;11.47;;;;;;;;;;6157405;23;20465;-88
2024/02/27 04:26:20;;;;;;;15.23;11.60;;;;;;;;;;6189771;23;20408;-89
2024/02/27 04:29:35;;;;;;;;;;;;;;;;;;;;;
2024/02/27 04:36:10;;;;;;;15.73;11.80;;;;;;;;;;6118905;23;20457;-88
2024/02/27 04:39:04;;;;;;;16.10;12.40;;;;;;;;;;6190702;23;20390;-88
2024/02/27 04:41:44;;;;;;;16.73;11.77;;;;;;;;;;6193389;23;20413;-90
2024/02/27 04:44:31;;;;;;;18.00;12.73;;;;;;;;;;6201366;23;20474;-89
2024/02/27 04:47:10;;;;;;;17.57;13.30;;;;;;;;;;6162045;23;20518;-90
2024/02/27 04:49:53;;;;;;;16.00;13.23;;;;;;;;;;6163617;23;20402;-90
2024/02/27 04:52:39;;;;;;;17.27;12.63;;;;;;;;;;6158912;23;20739;-88
2024/02/27 04:55:29;;;;;;;18.17;13.20;;;;;;;;;;6153617;23;20422;-88
2024/02/27 04:58:14;;;;;;;17.87;13.17;;;;;;;;;;6161190;23;20585;-88
2024/02/27 05:01:09;;;;;;;18.90;13.23;;;;;;;;;;6165521;23;20394;-88
2024/02/27 05:03:49;;;;;;;18.47;14.10;;;;;;;;;;6136786;23;20439;-89
2024/02/27 05:06:34;;;;;;;18.77;13.23;;;;;;;;;;6150003;23;20449;-88
2024/02/27 05:09:30;;;;;;;16.87;13.50;;;;;;;;;;6165697;23;20472;-89
2024/02/27 05:12:12;;;;;;;16.10;13.30;;;;;;;;;;6162900;23;20414;-89
2024/02/27 05:15:01;;;;;;;16.27;13.60;;;;;;;;;;6159279;23;20477;-86
2024/02/27 05:18:04;;;;;;;18.40;14.27;;;;;;;;;;6141480;23;20430;-89
2024/02/27 05:21:00;;;;;;;20.33;14.67;;;;;;;;;;6172041;23;20413;-89
2024/02/27 05:23:53;;;;;;;19.73;13.53;;;;;;;;;;6172843;23;20465;-89
2024/02/27 05:26:43;;;;;;;17.10;12.77;;;;;;;;;;6173611;23;20385;-89
2024/02/27 05:29:24;;;;;;;19.47;13.47;;;;;;;;;;6165675;23;20430;-91
2024/02/27 05:32:26;;;;;;;17.07;14.40;;;;;;;;;;6152843;23;20401;-88
2024/02/27 05:38:49;;;;;;;18.10;14.30;;;;;;;;;;6133782;23;20863;-87
2024/02/27 05:45:11;;;;;;;20.10;14.67;;;;;;;;;;6180867;23;20850;-89
2024/02/27 05:48:03;;;;;;;19.80;15.23;;;;;;;;;;6198026;23;20548;-89
2024/02/27 05:50:59;;;;;;;16.47;13.20;;;;;;;;;;6182557;23;20405;-90
2024/02/27 05:53:50;;;;;;;19.57;14.67;;;;;;;;;;6156368;23;20421;-89
2024/02/27 05:56:50;;;;;;;18.17;14.17;;;;;;;;;;6181429;23;20413;-88
2024/02/27 05:59:37;;;;;;;22.20;14.87;;;;;;;;;;6172164;23;20748;-89
2024/02/27 06:02:11;;;;;;;20.20;14.50;;;;;;;;;;6173734;23;20389;-88
2024/02/27 06:05:24;;;;;;;20.67;14.10;;;;;;;;;;6167940;23;20485;-88
2024/02/27 06:08:09;;;;;;;21.50;15.80;;;;;;;;;;6175064;23;20424;-88
2024/02/27 06:11:13;;;;;;;20.17;13.70;;;;;;;;;;6166171;23;20429;-88
2024/02/27 06:13:43;;;;;;;19.27;15.70;;;;;;;;;;6170277;23;20426;-88
2024/02/27 06:16:29;;;;;;;18.70;13.53;;;;;;;;;;6175084;23;20402;-89
2024/02/27 06:19:25;;;;;;;21.23;15.37;;;;;;;;;;6170922;23;20424;-87
2024/02/27 06:25:10;;;;;;;23.07;15.53;;;;;;;;;;6199480;23;20440;-88
2024/02/27 06:28:22;;;;;;;;;;;;;;;;;;;;;
2024/02/27 06:31:28;;;;;;;22.10;14.83;;;;;;;;;;6107356;23;20414;-89
2024/02/27 06:34:17;;;;;;;24.20;15.80;;;;;;;;;;6106592;23;20501;-88
2024/02/27 06:37:22;;;;;;;;;;;;;;;;;;;;;
2024/02/27 06:40:33;;;;;;;19.87;14.33;;;;;;;;;;6193544;23;20453;-88
2024/02/27 06:46:27;;;;;;;20.83;16.37;;;;;;;;;;6195970;23;20442;-88
2024/02/27 06:49:04;;;;;;;21.77;14.90;;;;;;;;;;6166282;23;21252;-87
2024/02/27 06:52:00;;;;;;;;;;;;;;;;;;;;;
2024/02/27 06:57:33;;;;;;;19.60;15.03;;;;;;;;;;6191383;23;20449;-87
2024/02/27 07:00:04;;;;;;;18.00;14.90;;;;;;;;;;6179955;23;20401;-88
2024/02/27 07:03:02;;;;;;;18.90;14.63;;;;;;;;;;6170854;23;20416;-89
2024/02/27 07:05:52;;;;;;;21.73;15.40;;;;;;;;;;6183375;23;20418;-88
2024/02/27 07:15:09;;;;;;;23.37;16.27;;;;;;;;;;6166731;23;20484;-88
2024/02/27 07:32:12;;;;;;;22.77;14.67;;;;;;;;;;6087410;23;20381;-88
2024/02/27 08:16:51;;;;;;;20.80;15.43;;;;;;;;;;6166531;23;20386;-88
2024/02/27 08:36:57;;;;;;;;;;;;;;;;;;;;;
2024/02/27 08:39:44;;;;;;;17.80;15.17;;;;;;;;;;6204329;23;20401;-88
2024/02/27 08:45:12;;;;;;;22.93;16.47;;;;;;;;;;6177517;23;20449;-86
2024/02/27 08:47:50;;;;;;;21.33;16.33;;;;;;;;;;6130575;23;20469;-85
2024/02/27 08:50:35;;;;;;;22.00;17.00;;;;;;;;;;6158862;23;21278;-84
2024/02/27 08:53:33;;;;;;;19.30;16.00;;;;;;;;;;6116466;23;20411;-85
2024/02/27 08:56:51;;;;;;;21.60;16.40;;;;;;;;;;6151952;23;20403;-86
2024/02/27 08:59:36;;;;;;;22.70;16.30;;;;;;;;;;6132543;23;20434;-87
2024/02/27 09:02:49;;;;;;;22.37;16.17;;;;;;;;;;6153610;23;20407;-84
2024/02/27 09:06:05;;;;;;;24.07;17.60;;;;;;;;;;6165382;23;20998;-87
2024/02/27 09:08:46;;;;;;;20.40;15.53;;;;;;;;;;6166178;23;20446;-86
2024/02/27 09:11:29;;;;;;;19.83;16.27;;;;;;;;;;6131352;23;20473;-86
2024/02/27 09:14:07;;;;;;;24.10;17.13;;;;;;;;;;6164847;23;20441;-88
2024/02/27 09:16:39;;;;;;;21.27;16.47;;;;;;;;;;6158854;23;20407;-86
2024/02/27 09:19:34;;;;;;;21.10;16.47;;;;;;;;;;6157166;23;20415;-87
2024/02/27 09:35:46;;;;;;;19.97;14.93;;;;;;;;;;6191048;23;20536;-87
2024/02/27 09:38:49;;;;;;;22.03;16.33;;;;;;;;;;6186538;23;20405;-86
2024/02/27 09:42:09;;;;;;;20.30;15.53;;;;;;;;;;6154864;23;20414;-86
2024/02/27 09:44:59;;;;;;;21.67;16.73;;;;;;;;;;6133380;23;20440;-86
2024/02/27 09:47:39;;;;;;;19.80;15.80;;;;;;;;;;6132359;23;20950;-87
2024/02/27 09:57:47;;;;;;;17.40;13.77;;;;;;;;;;5085729;28;20479;-84
2024/02/27 10:00:48;;;;;;;18.93;15.10;;;;;;;;;;5074257;28;20526;-87
2024/02/27 10:03:45;;;;;;;22.10;14.80;;;;;;;;;;5065042;28;20501;-84
2024/02/27 10:06:36;;;;;;;18.63;13.37;;;;;;;;;;5066883;28;20459;-87
2024/02/27 10:10:10;;;;;;;17.10;13.17;;;;;;;;;;5056292;28;22528;-87
2024/02/27 10:12:41;;;;;;;18.70;13.00;;;;;;;;;;5042542;28;20532;-86
2024/02/27 10:15:23;;;;;;;14.80;11.17;;;;;;;;;;5057738;28;20895;-88
2024/02/27 10:18:04;;;;;;;14.03;12.50;;;;;;;;;;5057732;28;20830;-86
2024/02/27 10:20:56;;;;;;;17.10;12.80;;;;;;;;;;5060053;28;20459;-87
2024/02/27 10:23:28;;;;;;;22.67;13.40;;;;;;;;;;5056754;28;20480;-86
2024/02/27 10:26:12;;;;;;;17.40;13.90;;;;;;;;;;5057159;28;20458;-85
2024/02/27 10:28:54;;;;;;;14.43;12.27;;;;;;;;;;5054090;28;20490;-88
2024/02/27 10:31:43;;;;;;;20.30;14.27;;;;;;;;;;5057873;28;20520;-87
2024/02/27 10:34:33;;;;;;;18.27;12.87;;;;;;;;;;5053805;28;20566;-87
2024/02/27 10:37:35;;;;;;;;;;;;;;;;;;;;;
2024/02/27 10:47:14;;;;;;;14.97;11.83;;;;;;;;;;5021317;28;20586;-86
2024/02/27 10:50:12;;;;;;;15.37;12.40;;;;;;;;;;5010171;28;20977;-86
2024/02/27 10:53:29;;;;;;;14.57;12.57;;;;;;;;;;5057284;28;20450;-89
2024/02/27 10:56:14;;;;;;;16.20;12.90;;;;;;;;;;5048481;28;20824;-86
2024/02/27 10:59:45;;;;;;;18.30;12.40;;;;;;;;;;5058428;28;20544;-84
2024/02/27 11:02:42;;;;;;;16.40;12.90;;;;;;;;;;5049956;28;20467;-87
2024/02/27 11:05:41;;;;;;;15.53;12.10;;;;;;;;;;5062420;28;20731;-87
2024/02/27 11:08:31;;;;;;;16.73;13.47;;;;;;;;;;5059594;28;20808;-85
2024/02/27 11:11:53;;;;;;;;;;;;;;;;;;;;;
2024/02/27 11:15:11;;;;;;;15.40;13.50;;;;;;;;;;5009007;28;20494;-85
2024/02/27 11:18:13;;;;;;;16.70;13.00;;;;;;;;;;4998374;28;20455;-87
2024/02/27 11:21:21;;;;;;;15.93;12.87;;;;;;;;;;4996926;28;20455;-87
2024/02/27 11:24:20;;;;;;;;;;;;;;;;;;;;;
2024/02/27 11:34:11;;;;;;;18.13;12.70;;;;;;;;;;5020913;28;20520;-86
2024/02/27 11:39:52;;;;;;;18.73;12.70;;;;;;;;;;4967510;28;21168;-88
2024/02/27 11:42:32;;;;;;;19.20;13.43;;;;;;;;;;4964092;28;20459;-87
2024/02/27 11:45:37;;;;;;;;;;;;;;;;;;;;;
2024/02/27 11:48:40;;;;;;;16.40;11.93;;;;;;;;;;4992315;28;20616;-87
2024/02/27 11:52:03;;;;;;;15.60;11.80;;;;;;;;;;4995150;28;20539;-86
2024/02/27 11:54:53;;;;;;;15.07;12.20;;;;;;;;;;4982823;28;20514;-86
2024/02/27 12:00:23;;;;;;;17.20;12.93;;;;;;;;;;5180756;23;20479;-85
2024/02/27 12:03:19;;;;;;;17.17;13.17;;;;;;;;;;4983864;28;20496;-86
2024/02/27 12:06:07;;;;;;;15.67;11.70;;;;;;;;;;4983247;28;20420;-86
2024/02/27 12:11:44;;;;;;;17.27;14.37;;;;;;;;;;5093216;23;20494;-86
2024/02/27 12:14:44;;;;;;;16.37;14.17;;;;;;;;;;5014288;28;20469;-86
2024/02/27 12:17:21;;;;;;;15.33;13.13;;;;;;;;;;5012403;28;20455;-85
2024/02/27 12:19:58;;;;;;;20.10;14.63;;;;;;;;;;5013072;28;20446;-86
2024/02/27 12:22:40;;;;;;;17.53;14.80;;;;;;;;;;5015864;28;20466;-85
2024/02/27 12:25:24;;;;;;;17.60;13.93;;;;;;;;;;5004083;28;20548;-84
2024/02/27 12:28:07;;;;;;;16.77;13.70;;;;;;;;;;5014785;28;20446;-85
2024/02/27 12:31:13;;;;;;;19.90;15.67;;;;;;;;;;5009154;28;20490;-87
2024/02/27 12:37:14;;;;;;;18.03;14.60;;;;;;;;;;5014379;28;20702;-86
2024/02/27 12:40:04;;;;;;;19.83;15.13;;;;;;;;;;5000624;28;20540;-86
2024/02/27 12:46:44;;;;;;;18.77;14.07;;;;;;;;;;5013027;28;20467;-85
2024/02/27 12:49:45;;;;;;;18.43;13.90;;;;;;;;;;5015239;28;20466;-85
2024/02/27 12:53:02;;;;;;;15.50;13.27;;;;;;;;;;5003389;28;20441;-84
2024/02/27 12:56:05;;;;;;;20.30;14.70;;;;;;;;;;5011059;28;20457;-86
2024/02/27 13:54:50;;;;;;;21.50;15.73;;;;;;;;;;5127441;23;20563;-84
2024/02/27 13:58:14;;;;;;;19.60;15.40;;;;;;;;;;4984743;28;20446;-84
2024/02/27 14:01:04;;;;;;;23.03;16.20;;;;;;;;;;5006972;28;20441;-85
2024/02/27 14:07:17;;;;;;;20.60;15.57;;;;;;;;;;4965136;28;20551;-85
2024/02/27 14:10:07;;;;;;;20.57;16.80;;;;;;;;;;4942993;28;20487;-85
2024/02/27 14:13:06;;;;;;;17.77;14.23;;;;;;;;;;5013400;23;20476;-85
2024/02/27 14:15:48;;;;;;;21.87;16.80;;;;;;;;;;4956229;28;20516;-84
2024/02/27 14:18:55;;;;;;;18.80;15.10;;;;;;;;;;4951956;28;20436;-85
2024/02/27 14:22:09;;;;;;;;;;;;;;;;;;;;;
2024/02/27 14:25:23;;;;;;;;;;;;;;;;;;;;;
2024/02/27 14:28:29;;;;;;;;;;;;;;;;;;;;;
2024/02/27 14:31:41;;;;;;;28.97;16.60;;;;;;;;;;4856350;29;20533;-85
2024/02/27 14:55:23;;;;;;;19.33;15.43;;;;;;;;;;5000765;23;20502;-84
2024/02/27 15:16:47;;;;;;;20.67;15.17;;;;;;;;;;4949702;28;20841;-84
2024/02/27 15:19:41;;;;;;;24.47;16.33;;;;;;;;;;4997604;28;21252;-86
2024/02/27 15:25:21;;;;;;;18.40;14.10;;;;;;;;;;4995971;23;20614;-84
2024/02/27 15:28:20;;;;;;;20.50;15.20;;;;;;;;;;4890281;29;20573;-85
2024/02/27 15:35:29;;;;;;;20.37;14.70;;;;;;;;;;4820158;29;20487;-88
2024/02/27 16:39:38;;;;;;;20.27;15.50;;;;;;;;;;4998461;28;20466;-88
2024/02/27 16:52:10;;;;;;;20.13;15.87;;;;;;;;;;4912734;29;20444;-88
2024/02/27 16:55:03;;;;;;;16.30;14.43;;;;;;;;;;4869446;29;20556;-87
2024/02/27 16:58:05;;;;;;;19.57;15.10;;;;;;;;;;4900150;29;20568;-88
2024/02/27 17:07:33;;;;;;;19.67;13.30;;;;;;;;;;4905814;29;20550;-86
2024/02/27 17:11:00;;;;;;;18.20;13.37;;;;;;;;;;4879292;29;20488;-89
2024/02/27 17:54:23;;;;;;;21.97;17.30;;;;;;;;;;5023577;28;20558;-89
2024/02/27 18:00:47;;;;;;;22.40;15.97;;;;;;;;;;5028655;28;20417;-89
2024/02/27 18:06:46;;;;;;;23.40;17.53;;;;;;;;;;5164226;23;20486;-88
2024/02/27 18:49:04;;;;;;;;;;;;;;;;;;;;;
2024/02/27 18:58:59;;;;;;;;;;;;;;;;;;;;;
2024/02/27 19:19:00;;;;;;;19.90;13.97;;;;;;;;;;4949226;29;20445;-87
2024/02/27 19:41:08;;;;;;;23.10;15.30;;;;;;;;;;5085702;23;20474;-86
2024/02/27 19:55:08;;;;;;;27.40;16.80;;;;;;;;;;4866476;29;20442;-88
2024/02/27 20:33:34;;;;;;;25.67;15.30;;;;;;;;;;5256769;23;20477;-87
2024/02/27 20:44:04;;;;;;;22.60;14.63;;;;;;;;;;4999859;28;20452;-89
2024/02/27 21:14:18;;;;;;;27.93;19.40;;;;;;;;;;5602890;23;20566;-87
2024/02/27 21:25:03;;;;;;;26.37;17.57;;;;;;;;;;4963986;28;20462;-88
2024/02/27 23:05:09;;;;;;;27.03;15.90;;;;;;;;;;1669925;23;20728;-87
2024/02/27 23:16:49;;;;;;;;;;;;;;;;;;;;;
2024/02/27 23:19:59;;;;;;;29.27;16.93;;;;;;;;;;5002583;28;20491;-88
2024/02/27 23:36:02;;;;;;;29.00;17.50;;;;;;;;;;4875460;29;21025;-88
2024/02/27 23:48:03;;;;;;;29.90;16.77;;;;;;;;;;5040846;23;20480;-87
2024/02/27 23:55:09;;;;;;;31.40;17.60;;;;;;;;;;5306436;23;20491;-91
2024/02/27 23:58:02;;;;;;;28.13;18.07;;;;;;;;;;4956650;28;20488;-90
